sensor_id;sensor_type;location;lat;lon;timestamp;pressure;altitude;pressure_sealevel;temperature;humidity
47366;BME280;33105;47.964;7.982;2023-03-01T00:01:31;97215.91;;;-1.75;74.11
47366;BME280;33105;47.964;7.982;2023-03-01T00:04:33;97213.72;;;-1.41;72.96
47366;BME280;33105;47.964;7.982;2023-03-01T00:07:36;97209.50;;;-1.35;73.04
47366;BME280;33105;47.964;7.982;2023-03-01T00:10:38;97211.50;;;-1.37;73.08
47366;BME280;33105;47.964;7.982;2023-03-01T00:13:40;97215.09;;;-1.22;72.59
47366;BME280;33105;47.964;7.982;2023-03-01T00:16:43;97219.16;;;-1.26;72.81
47366;BME280;33105;47.964;7.982;2023-03-01T00:19:45;97214.75;;;-0.96;71.43
47366;BME280;33105;47.964;7.982;2023-03-01T00:22:47;97214.00;;;-1.05;71.61
47366;BME280;33105;47.964;7.982;2023-03-01T00:25:49;97208.38;;;-0.95;70.98
47366;BME280;33105;47.964;7.982;2023-03-01T00:28:51;97208.38;;;-0.72;71.06
47366;BME280;33105;47.964;7.982;2023-03-01T00:31:54;97216.44;;;-0.95;70.57
47366;BME280;33105;47.964;7.982;2023-03-01T00:34:56;97197.78;;;-1.11;71.32
47366;BME280;33105;47.964;7.982;2023-03-01T00:37:57;97207.81;;;-1.05;71.26
47366;BME280;33105;47.964;7.982;2023-03-01T00:41:06;97197.47;;;-0.93;70.58
47366;BME280;33105;47.964;7.982;2023-03-01T00:44:07;97196.81;;;-0.95;71.08
47366;BME280;33105;47.964;7.982;2023-03-01T00:47:10;97193.13;;;-1.17;71.17
47366;BME280;33105;47.964;7.982;2023-03-01T00:50:12;97191.34;;;-1.25;72.83
47366;BME280;33105;47.964;7.982;2023-03-01T00:53:14;97187.75;;;-1.40;72.74
47366;BME280;33105;47.964;7.982;2023-03-01T00:56:15;97193.34;;;-1.50;73.23
47366;BME280;33105;47.964;7.982;2023-03-01T00:59:18;97194.03;;;-1.56;73.83
47366;BME280;33105;47.964;7.982;2023-03-01T01:02:20;97190.91;;;-1.67;74.07
47366;BME280;33105;47.964;7.982;2023-03-01T01:05:22;97192.09;;;-1.70;74.37
47366;BME280;33105;47.964;7.982;2023-03-01T01:08:23;97178.41;;;-1.75;75.36
47366;BME280;33105;47.964;7.982;2023-03-01T01:11:26;97173.00;;;-1.67;74.67
47366;BME280;33105;47.964;7.982;2023-03-01T01:14:28;97169.63;;;-1.61;73.79
47366;BME280;33105;47.964;7.982;2023-03-01T01:17:30;97168.91;;;-1.55;73.39
47366;BME280;33105;47.964;7.982;2023-03-01T01:20:31;97172.59;;;-1.56;73.46
47366;BME280;33105;47.964;7.982;2023-03-01T01:23:34;97182.13;;;-1.84;73.99
47366;BME280;33105;47.964;7.982;2023-03-01T01:26:35;97180.78;;;-1.88;74.17
47366;BME280;33105;47.964;7.982;2023-03-01T01:29:37;97163.38;;;-1.84;74.44
47366;BME280;33105;47.964;7.982;2023-03-01T01:32:39;97160.41;;;-1.97;75.23
47366;BME280;33105;47.964;7.982;2023-03-01T01:35:40;97163.50;;;-2.17;75.05
47366;BME280;33105;47.964;7.982;2023-03-01T01:38:43;97159.47;;;-2.13;76.40
47366;BME280;33105;47.964;7.982;2023-03-01T01:41:44;97158.66;;;-2.21;76.16
47366;BME280;33105;47.964;7.982;2023-03-01T01:44:46;97155.97;;;-2.21;76.43
47366;BME280;33105;47.964;7.982;2023-03-01T01:47:48;97150.81;;;-2.23;75.96
47366;BME280;33105;47.964;7.982;2023-03-01T01:51:00;97151.53;;;-2.37;75.94
47366;BME280;33105;47.964;7.982;2023-03-01T01:54:02;97149.50;;;-2.35;76.34
47366;BME280;33105;47.964;7.982;2023-03-01T01:57:08;97145.69;;;-2.41;76.16
47366;BME280;33105;47.964;7.982;2023-03-01T02:00:23;97139.00;;;-2.45;76.79
47366;BME280;33105;47.964;7.982;2023-03-01T02:03:29;97131.69;;;-2.51;76.92
47366;BME280;33105;47.964;7.982;2023-03-01T02:06:43;97132.81;;;-2.45;76.66
47366;BME280;33105;47.964;7.982;2023-03-01T02:09:49;97124.13;;;-2.47;76.77
47366;BME280;33105;47.964;7.982;2023-03-01T02:12:55;97131.56;;;-2.73;77.94
47366;BME280;33105;47.964;7.982;2023-03-01T02:15:57;97128.34;;;-2.69;79.16
47366;BME280;33105;47.964;7.982;2023-03-01T02:19:00;97130.19;;;-2.69;77.65
47366;BME280;33105;47.964;7.982;2023-03-01T02:22:10;97134.75;;;-2.78;78.27
47366;BME280;33105;47.964;7.982;2023-03-01T02:28:40;97127.88;;;-2.81;77.62
47366;BME280;33105;47.964;7.982;2023-03-01T02:31:41;97129.56;;;-2.88;77.61
47366;BME280;33105;47.964;7.982;2023-03-01T02:34:43;97124.22;;;-2.88;77.99
47366;BME280;33105;47.964;7.982;2023-03-01T02:37:46;97128.09;;;-2.98;77.84
47366;BME280;33105;47.964;7.982;2023-03-01T02:40:50;97126.91;;;-3.04;78.53
47366;BME280;33105;47.964;7.982;2023-03-01T02:43:52;97115.03;;;-2.93;79.17
47366;BME280;33105;47.964;7.982;2023-03-01T02:46:56;97122.22;;;-3.10;78.68
47366;BME280;33105;47.964;7.982;2023-03-01T02:49:58;97119.56;;;-3.02;79.17
47366;BME280;33105;47.964;7.982;2023-03-01T02:53:16;97117.03;;;-2.95;79.38
47366;BME280;33105;47.964;7.982;2023-03-01T02:56:22;97104.16;;;-2.92;79.69
47366;BME280;33105;47.964;7.982;2023-03-01T02:59:31;97105.84;;;-2.91;78.98
47366;BME280;33105;47.964;7.982;2023-03-01T03:02:41;97099.47;;;-2.90;79.59
47366;BME280;33105;47.964;7.982;2023-03-01T03:05:51;97102.31;;;-2.75;79.71
47366;BME280;33105;47.964;7.982;2023-03-01T03:08:53;97098.44;;;-2.64;78.44
47366;BME280;33105;47.964;7.982;2023-03-01T03:11:55;97095.34;;;-2.45;78.27
47366;BME280;33105;47.964;7.982;2023-03-01T03:14:59;97090.56;;;-2.19;77.62
47366;BME280;33105;47.964;7.982;2023-03-01T03:18:03;97085.50;;;-2.06;77.05
47366;BME280;33105;47.964;7.982;2023-03-01T03:21:09;97091.84;;;-1.98;76.44
47366;BME280;33105;47.964;7.982;2023-03-01T03:24:13;97082.72;;;-1.89;75.79
47366;BME280;33105;47.964;7.982;2023-03-01T03:27:14;97087.69;;;-1.78;75.89
47366;BME280;33105;47.964;7.982;2023-03-01T03:30:19;97068.47;;;-1.59;75.46
47366;BME280;33105;47.964;7.982;2023-03-01T03:33:20;97070.16;;;-1.58;75.39
47366;BME280;33105;47.964;7.982;2023-03-01T03:36:25;97064.25;;;-1.53;75.49
47366;BME280;33105;47.964;7.982;2023-03-01T03:39:28;97069.34;;;-1.44;74.75
47366;BME280;33105;47.964;7.982;2023-03-01T03:42:30;97068.59;;;-1.29;74.15
47366;BME280;33105;47.964;7.982;2023-03-01T03:45:32;97067.22;;;-1.25;74.50
47366;BME280;33105;47.964;7.982;2023-03-01T03:48:38;97069.50;;;-1.22;74.27
47366;BME280;33105;47.964;7.982;2023-03-01T03:51:40;97067.31;;;-1.19;74.34
47366;BME280;33105;47.964;7.982;2023-03-01T03:54:41;97068.25;;;-1.12;74.26
47366;BME280;33105;47.964;7.982;2023-03-01T03:57:43;97065.69;;;-1.05;74.04
47366;BME280;33105;47.964;7.982;2023-03-01T04:00:44;97058.97;;;-1.01;72.89
47366;BME280;33105;47.964;7.982;2023-03-01T04:03:46;97064.63;;;-0.81;72.52
47366;BME280;33105;47.964;7.982;2023-03-01T04:06:49;97051.66;;;-0.48;71.04
47366;BME280;33105;47.964;7.982;2023-03-01T04:09:50;97052.06;;;-0.51;70.99
47366;BME280;33105;47.964;7.982;2023-03-01T04:12:53;97043.25;;;-0.30;70.61
47366;BME280;33105;47.964;7.982;2023-03-01T04:15:55;97047.78;;;-0.46;71.38
47366;BME280;33105;47.964;7.982;2023-03-01T04:18:57;97052.88;;;-0.36;70.99
47366;BME280;33105;47.964;7.982;2023-03-01T04:22:02;97051.03;;;-0.50;71.53
47366;BME280;33105;47.964;7.982;2023-03-01T04:25:08;97041.69;;;-0.40;71.35
47366;BME280;33105;47.964;7.982;2023-03-01T04:28:11;97047.50;;;-0.36;71.35
47366;BME280;33105;47.964;7.982;2023-03-01T04:31:16;97030.94;;;-0.25;71.20
47366;BME280;33105;47.964;7.982;2023-03-01T04:34:20;97021.31;;;0.02;70.09
47366;BME280;33105;47.964;7.982;2023-03-01T04:37:21;97022.78;;;0.05;69.63
47366;BME280;33105;47.964;7.982;2023-03-01T04:40:24;97024.97;;;-0.06;70.40
47366;BME280;33105;47.964;7.982;2023-03-01T04:43:26;97025.25;;;-0.01;69.73
47366;BME280;33105;47.964;7.982;2023-03-01T04:46:28;97026.09;;;-0.15;71.05
47366;BME280;33105;47.964;7.982;2023-03-01T04:49:29;97037.00;;;-0.16;71.29
47366;BME280;33105;47.964;7.982;2023-03-01T04:52:31;97028.50;;;-0.20;71.32
47366;BME280;33105;47.964;7.982;2023-03-01T04:55:33;97032.41;;;0.14;70.17
47366;BME280;33105;47.964;7.982;2023-03-01T04:58:35;97020.19;;;0.11;70.03
47366;BME280;33105;47.964;7.982;2023-03-01T05:01:38;97023.72;;;0.12;69.91
47366;BME280;33105;47.964;7.982;2023-03-01T05:04:41;97022.41;;;0.08;70.18
47366;BME280;33105;47.964;7.982;2023-03-01T05:07:42;97015.53;;;0.20;70.28
47366;BME280;33105;47.964;7.982;2023-03-01T05:10:49;97009.63;;;0.10;70.03
47366;BME280;33105;47.964;7.982;2023-03-01T05:13:52;97003.25;;;0.32;69.41
47366;BME280;33105;47.964;7.982;2023-03-01T05:16:56;97004.91;;;0.33;68.75
47366;BME280;33105;47.964;7.982;2023-03-01T05:20:05;97004.78;;;0.20;69.66
47366;BME280;33105;47.964;7.982;2023-03-01T05:23:10;96996.84;;;0.12;70.02
47366;BME280;33105;47.964;7.982;2023-03-01T05:26:11;96994.88;;;0.42;68.43
47366;BME280;33105;47.964;7.982;2023-03-01T05:29:13;96990.34;;;0.21;69.45
47366;BME280;33105;47.964;7.982;2023-03-01T05:32:15;96999.41;;;0.20;69.99
47366;BME280;33105;47.964;7.982;2023-03-01T05:35:17;96996.09;;;0.18;69.42
47366;BME280;33105;47.964;7.982;2023-03-01T05:38:20;96987.00;;;0.19;69.26
47366;BME280;33105;47.964;7.982;2023-03-01T05:41:22;96998.06;;;0.09;69.95
47366;BME280;33105;47.964;7.982;2023-03-01T05:44:24;96994.03;;;0.20;69.58
47366;BME280;33105;47.964;7.982;2023-03-01T05:47:26;96992.03;;;0.07;70.95
47366;BME280;33105;47.964;7.982;2023-03-01T05:50:34;96992.88;;;0.08;70.68
47366;BME280;33105;47.964;7.982;2023-03-01T05:53:37;96986.75;;;0.14;70.14
47366;BME280;33105;47.964;7.982;2023-03-01T05:56:38;96981.66;;;0.04;71.11
47366;BME280;33105;47.964;7.982;2023-03-01T05:59:40;96985.19;;;0.05;70.87
47366;BME280;33105;47.964;7.982;2023-03-01T06:02:41;96978.94;;;0.19;70.19
47366;BME280;33105;47.964;7.982;2023-03-01T06:05:43;96986.38;;;0.17;69.72
47366;BME280;33105;47.964;7.982;2023-03-01T06:08:45;96987.13;;;0.11;70.25
47366;BME280;33105;47.964;7.982;2023-03-01T06:11:47;96984.50;;;0.17;70.70
47366;BME280;33105;47.964;7.982;2023-03-01T06:14:48;96987.75;;;0.13;70.46
47366;BME280;33105;47.964;7.982;2023-03-01T06:17:51;96980.91;;;0.10;71.12
47366;BME280;33105;47.964;7.982;2023-03-01T06:20:54;96983.78;;;0.09;71.21
47366;BME280;33105;47.964;7.982;2023-03-01T06:23:56;96987.22;;;0.03;71.36
47366;BME280;33105;47.964;7.982;2023-03-01T06:26:57;96981.94;;;0.09;71.02
47366;BME280;33105;47.964;7.982;2023-03-01T06:29:59;96996.84;;;0.12;70.62
47366;BME280;33105;47.964;7.982;2023-03-01T06:33:02;96992.00;;;0.22;70.00
47366;BME280;33105;47.964;7.982;2023-03-01T06:36:04;96990.06;;;0.16;70.57
47366;BME280;33105;47.964;7.982;2023-03-01T06:39:06;96994.34;;;0.31;69.14
47366;BME280;33105;47.964;7.982;2023-03-01T06:42:08;96991.28;;;0.34;68.81
47366;BME280;33105;47.964;7.982;2023-03-01T06:45:11;96987.75;;;0.13;69.98
47366;BME280;33105;47.964;7.982;2023-03-01T06:48:12;96987.97;;;0.32;69.59
47366;BME280;33105;47.964;7.982;2023-03-01T06:51:14;96990.84;;;0.31;70.03
47366;BME280;33105;47.964;7.982;2023-03-01T06:54:16;96991.22;;;0.28;69.83
47366;BME280;33105;47.964;7.982;2023-03-01T06:57:19;96992.50;;;0.32;69.85
47366;BME280;33105;47.964;7.982;2023-03-01T07:00:22;96990.53;;;0.41;69.13
47366;BME280;33105;47.964;7.982;2023-03-01T07:03:24;96985.97;;;0.41;68.19
47366;BME280;33105;47.964;7.982;2023-03-01T07:06:26;96995.44;;;0.37;69.26
47366;BME280;33105;47.964;7.982;2023-03-01T07:09:28;96995.25;;;0.39;69.34
47366;BME280;33105;47.964;7.982;2023-03-01T07:12:30;97002.66;;;0.58;67.96
47366;BME280;33105;47.964;7.982;2023-03-01T07:15:32;96989.03;;;0.59;68.36
47366;BME280;33105;47.964;7.982;2023-03-01T07:18:34;96988.53;;;0.28;70.02
47366;BME280;33105;47.964;7.982;2023-03-01T07:21:36;96987.72;;;0.49;68.77
47366;BME280;33105;47.964;7.982;2023-03-01T07:24:41;96992.75;;;0.37;69.13
47366;BME280;33105;47.964;7.982;2023-03-01T07:27:42;96997.66;;;0.55;68.76
47366;BME280;33105;47.964;7.982;2023-03-01T07:30:44;96985.38;;;0.67;68.18
47366;BME280;33105;47.964;7.982;2023-03-01T07:33:46;96980.59;;;0.62;68.20
47366;BME280;33105;47.964;7.982;2023-03-01T07:36:48;96978.34;;;0.66;68.00
47366;BME280;33105;47.964;7.982;2023-03-01T07:39:50;96970.03;;;0.61;68.64
47366;BME280;33105;47.964;7.982;2023-03-01T07:42:59;96976.16;;;0.55;68.74
47366;BME280;33105;47.964;7.982;2023-03-01T07:46:01;96973.84;;;0.52;69.04
47366;BME280;33105;47.964;7.982;2023-03-01T07:49:03;96975.47;;;0.67;69.14
47366;BME280;33105;47.964;7.982;2023-03-01T07:52:06;96973.59;;;0.68;69.21
47366;BME280;33105;47.964;7.982;2023-03-01T07:55:10;96965.94;;;0.93;67.20
47366;BME280;33105;47.964;7.982;2023-03-01T07:58:11;96962.88;;;0.75;68.09
47366;BME280;33105;47.964;7.982;2023-03-01T08:01:16;96969.06;;;0.96;67.26
47366;BME280;33105;47.964;7.982;2023-03-01T08:04:19;96964.13;;;0.72;68.03
47366;BME280;33105;47.964;7.982;2023-03-01T08:07:20;96966.06;;;0.85;68.12
47366;BME280;33105;47.964;7.982;2023-03-01T08:10:21;96957.88;;;0.99;66.42
47366;BME280;33105;47.964;7.982;2023-03-01T08:13:23;96963.69;;;1.03;67.60
47366;BME280;33105;47.964;7.982;2023-03-01T08:16:25;96970.53;;;0.99;67.20
47366;BME280;33105;47.964;7.982;2023-03-01T08:19:27;96970.00;;;1.17;66.50
47366;BME280;33105;47.964;7.982;2023-03-01T08:22:29;96962.72;;;1.11;66.78
47366;BME280;33105;47.964;7.982;2023-03-01T08:25:31;96965.53;;;1.30;66.66
47366;BME280;33105;47.964;7.982;2023-03-01T08:28:32;96961.34;;;1.21;66.38
47366;BME280;33105;47.964;7.982;2023-03-01T08:31:36;96958.72;;;1.34;67.04
47366;BME280;33105;47.964;7.982;2023-03-01T08:34:38;96955.25;;;1.41;67.48
47366;BME280;33105;47.964;7.982;2023-03-01T08:37:41;96956.50;;;1.51;65.67
47366;BME280;33105;47.964;7.982;2023-03-01T08:40:49;96956.31;;;1.53;66.00
47366;BME280;33105;47.964;7.982;2023-03-01T08:44:39;96957.22;;;1.66;65.30
47366;BME280;33105;47.964;7.982;2023-03-01T08:52:32;96956.94;;;1.55;65.34
47366;BME280;33105;47.964;7.982;2023-03-01T08:55:34;96953.69;;;1.66;64.71
47366;BME280;33105;47.964;7.982;2023-03-01T08:58:37;96947.09;;;1.68;64.02
47366;BME280;33105;47.964;7.982;2023-03-01T09:01:41;96943.72;;;1.60;65.28
47366;BME280;33105;47.964;7.982;2023-03-01T09:04:45;96947.78;;;1.43;65.07
47366;BME280;33105;47.964;7.982;2023-03-01T09:07:47;96945.38;;;1.61;65.15
47366;BME280;33105;47.964;7.982;2023-03-01T09:10:51;96940.06;;;1.81;63.94
47366;BME280;33105;47.964;7.982;2023-03-01T09:13:53;96926.78;;;1.79;64.90
47366;BME280;33105;47.964;7.982;2023-03-01T09:27:17;96914.06;;;2.21;62.49
47366;BME280;33105;47.964;7.982;2023-03-01T09:45:59;96929.38;;;2.27;62.04
47366;BME280;33105;47.964;7.982;2023-03-01T09:49:17;96934.34;;;2.23;63.46
47366;BME280;33105;47.964;7.982;2023-03-01T09:53:01;96929.19;;;2.35;62.57
47366;BME280;33105;47.964;7.982;2023-03-01T09:56:13;96933.56;;;2.56;60.29
47366;BME280;33105;47.964;7.982;2023-03-01T09:59:36;96939.16;;;2.34;61.31
47366;BME280;33105;47.964;7.982;2023-03-01T10:02:57;96933.53;;;2.16;61.81
47366;BME280;33105;47.964;7.982;2023-03-01T10:06:08;96930.19;;;2.08;62.76
47366;BME280;33105;47.964;7.982;2023-03-01T10:09:16;96928.94;;;2.03;63.43
47366;BME280;33105;47.964;7.982;2023-03-01T10:12:24;96924.44;;;2.37;63.24
47366;BME280;33105;47.964;7.982;2023-03-01T10:15:47;96922.75;;;2.16;62.96
47366;BME280;33105;47.964;7.982;2023-03-01T10:18:55;96916.56;;;2.42;64.05
47366;BME280;33105;47.964;7.982;2023-03-01T10:22:10;96901.41;;;2.67;63.43
47366;BME280;33105;47.964;7.982;2023-03-01T10:25:14;96905.28;;;3.04;61.01
47366;BME280;33105;47.964;7.982;2023-03-01T10:31:44;96900.63;;;3.38;59.44
47366;BME280;33105;47.964;7.982;2023-03-01T10:34:47;96907.75;;;3.19;59.36
47366;BME280;33105;47.964;7.982;2023-03-01T10:41:06;96898.41;;;3.08;60.79
47366;BME280;33105;47.964;7.982;2023-03-01T10:44:11;96896.97;;;3.06;61.14
47366;BME280;33105;47.964;7.982;2023-03-01T10:47:32;96902.59;;;2.98;60.30
47366;BME280;33105;47.964;7.982;2023-03-01T10:50:35;96888.03;;;3.05;60.67
47366;BME280;33105;47.964;7.982;2023-03-01T10:53:43;96887.97;;;3.25;61.09
47366;BME280;33105;47.964;7.982;2023-03-01T10:56:57;96880.25;;;3.42;59.09
47366;BME280;33105;47.964;7.982;2023-03-01T11:00:14;96881.72;;;3.38;61.53
47366;BME280;33105;47.964;7.982;2023-03-01T11:03:27;96871.03;;;3.56;59.93
47366;BME280;33105;47.964;7.982;2023-03-01T11:06:30;96870.31;;;3.36;60.28
47366;BME280;33105;47.964;7.982;2023-03-01T11:09:33;96872.03;;;3.17;59.92
47366;BME280;33105;47.964;7.982;2023-03-01T11:12:43;96862.47;;;3.66;59.77
47366;BME280;33105;47.964;7.982;2023-03-01T11:16:00;96860.94;;;3.76;58.76
47366;BME280;33105;47.964;7.982;2023-03-01T11:22:20;96850.81;;;4.03;57.34
47366;BME280;33105;47.964;7.982;2023-03-01T11:25:26;96851.25;;;4.00;58.32
47366;BME280;33105;47.964;7.982;2023-03-01T11:28:33;96841.19;;;4.14;58.17
47366;BME280;33105;47.964;7.982;2023-03-01T11:31:39;96842.22;;;4.13;57.89
47366;BME280;33105;47.964;7.982;2023-03-01T11:34:58;96838.03;;;4.17;57.04
47366;BME280;33105;47.964;7.982;2023-03-01T11:41:17;96839.41;;;3.70;58.39
47366;BME280;33105;47.964;7.982;2023-03-01T11:44:24;96833.31;;;4.06;57.52
47366;BME280;33105;47.964;7.982;2023-03-01T11:47:43;96832.53;;;3.29;58.82
47366;BME280;33105;47.964;7.982;2023-03-01T11:50:52;96832.06;;;3.39;60.17
47366;BME280;33105;47.964;7.982;2023-03-01T11:54:26;96822.72;;;3.73;58.66
47366;BME280;33105;47.964;7.982;2023-03-01T11:57:43;96819.94;;;3.55;58.52
47366;BME280;33105;47.964;7.982;2023-03-01T12:01:00;96809.25;;;3.98;60.10
47366;BME280;33105;47.964;7.982;2023-03-01T12:21:14;96804.06;;;3.96;58.56
47366;BME280;33105;47.964;7.982;2023-03-01T12:41:08;96782.56;;;4.33;56.79
47366;BME280;33105;47.964;7.982;2023-03-01T12:44:30;96768.56;;;4.61;55.44
47366;BME280;33105;47.964;7.982;2023-03-01T12:51:08;96770.25;;;4.37;57.90
47366;BME280;33105;47.964;7.982;2023-03-01T12:54:26;96775.78;;;4.67;58.22
47366;BME280;33105;47.964;7.982;2023-03-01T12:57:40;96766.59;;;3.75;58.80
47366;BME280;33105;47.964;7.982;2023-03-01T13:08:01;96746.00;;;5.03;57.65
47366;BME280;33105;47.964;7.982;2023-03-01T13:11:16;96743.13;;;5.17;56.22
47366;BME280;33105;47.964;7.982;2023-03-01T13:17:33;96732.47;;;5.63;53.53
47366;BME280;33105;47.964;7.982;2023-03-01T13:23:47;96734.19;;;5.16;55.14
47366;BME280;33105;47.964;7.982;2023-03-01T13:27:21;96733.84;;;4.76;56.23
47366;BME280;33105;47.964;7.982;2023-03-01T13:33:44;96741.25;;;4.99;55.64
47366;BME280;33105;47.964;7.982;2023-03-01T13:36:48;96735.78;;;5.05;55.03
47366;BME280;33105;47.964;7.982;2023-03-01T13:39:49;96735.88;;;4.62;56.83
47366;BME280;33105;47.964;7.982;2023-03-01T13:42:56;96743.28;;;4.49;58.36
47366;BME280;33105;47.964;7.982;2023-03-01T13:45:59;96745.94;;;4.55;57.09
47366;BME280;33105;47.964;7.982;2023-03-01T13:49:02;96743.09;;;4.87;55.50
47366;BME280;33105;47.964;7.982;2023-03-01T13:52:05;96739.31;;;4.51;57.60
47366;BME280;33105;47.964;7.982;2023-03-01T13:55:17;96738.03;;;4.35;57.29
47366;BME280;33105;47.964;7.982;2023-03-01T13:58:30;96736.16;;;4.36;57.85
47366;BME280;33105;47.964;7.982;2023-03-01T14:01:36;96738.31;;;4.27;58.08
47366;BME280;33105;47.964;7.982;2023-03-01T14:04:37;96740.09;;;4.15;59.66
47366;BME280;33105;47.964;7.982;2023-03-01T14:07:43;96735.53;;;4.16;58.64
47366;BME280;33105;47.964;7.982;2023-03-01T14:11:02;96732.78;;;4.59;58.83
47366;BME280;33105;47.964;7.982;2023-03-01T14:17:34;96717.03;;;5.04;56.60
47366;BME280;33105;47.964;7.982;2023-03-01T14:20:40;96714.59;;;4.04;57.66
47366;BME280;33105;47.964;7.982;2023-03-01T14:23:42;96713.94;;;4.09;57.91
47366;BME280;33105;47.964;7.982;2023-03-01T14:26:44;96711.19;;;4.34;59.17
47366;BME280;33105;47.964;7.982;2023-03-01T14:30:18;96721.13;;;4.40;57.50
47366;BME280;33105;47.964;7.982;2023-03-01T14:33:28;96714.19;;;4.99;57.51
47366;BME280;33105;47.964;7.982;2023-03-01T14:36:33;96707.56;;;5.13;57.78
47366;BME280;33105;47.964;7.982;2023-03-01T14:39:35;96703.00;;;4.77;55.89
47366;BME280;33105;47.964;7.982;2023-03-01T14:42:38;96706.41;;;5.21;57.10
47366;BME280;33105;47.964;7.982;2023-03-01T14:45:39;96709.94;;;5.21;57.25
47366;BME280;33105;47.964;7.982;2023-03-01T14:48:50;96700.31;;;4.77;56.62
47366;BME280;33105;47.964;7.982;2023-03-01T14:52:04;96697.34;;;4.97;57.67
47366;BME280;33105;47.964;7.982;2023-03-01T14:55:19;96704.44;;;4.79;55.75
47366;BME280;33105;47.964;7.982;2023-03-01T14:58:24;96697.72;;;5.30;56.12
47366;BME280;33105;47.964;7.982;2023-03-01T15:01:26;96695.19;;;5.47;56.40
47366;BME280;33105;47.964;7.982;2023-03-01T15:04:29;96689.91;;;5.22;55.68
47366;BME280;33105;47.964;7.982;2023-03-01T15:07:34;96688.25;;;5.21;58.58
47366;BME280;33105;47.964;7.982;2023-03-01T15:10:36;96687.31;;;5.16;58.40
47366;BME280;33105;47.964;7.982;2023-03-01T15:13:39;96686.03;;;5.18;56.86
47366;BME280;33105;47.964;7.982;2023-03-01T15:16:41;96677.09;;;5.18;56.76
47366;BME280;33105;47.964;7.982;2023-03-01T15:19:46;96701.31;;;5.12;57.20
47366;BME280;33105;47.964;7.982;2023-03-01T15:22:49;96699.66;;;5.11;57.02
47366;BME280;33105;47.964;7.982;2023-03-01T15:25:53;96693.19;;;5.42;57.11
47366;BME280;33105;47.964;7.982;2023-03-01T15:28:59;96680.50;;;5.25;57.03
47366;BME280;33105;47.964;7.982;2023-03-01T15:32:03;96679.41;;;5.44;58.50
47366;BME280;33105;47.964;7.982;2023-03-01T15:35:43;96683.34;;;5.00;57.00
47366;BME280;33105;47.964;7.982;2023-03-01T15:38:55;96674.19;;;5.31;57.48
47366;BME280;33105;47.964;7.982;2023-03-01T15:41:57;96676.34;;;5.52;57.37
47366;BME280;33105;47.964;7.982;2023-03-01T15:48:18;96687.66;;;5.49;57.09
47366;BME280;33105;47.964;7.982;2023-03-01T15:51:27;96679.88;;;5.53;56.25
47366;BME280;33105;47.964;7.982;2023-03-01T15:54:32;96684.94;;;5.49;56.04
47366;BME280;33105;47.964;7.982;2023-03-01T15:57:34;96677.31;;;5.58;57.17
47366;BME280;33105;47.964;7.982;2023-03-01T16:00:36;96688.59;;;5.43;57.49
47366;BME280;33105;47.964;7.982;2023-03-01T16:03:37;96685.69;;;5.26;57.60
47366;BME280;33105;47.964;7.982;2023-03-01T16:06:39;96680.41;;;5.20;57.07
47366;BME280;33105;47.964;7.982;2023-03-01T16:09:41;96681.47;;;5.00;57.06
47366;BME280;33105;47.964;7.982;2023-03-01T16:12:45;96683.53;;;4.87;59.11
47366;BME280;33105;47.964;7.982;2023-03-01T16:15:49;96679.81;;;4.69;58.83
47366;BME280;33105;47.964;7.982;2023-03-01T16:18:51;96684.91;;;4.59;58.73
47366;BME280;33105;47.964;7.982;2023-03-01T16:21:53;96684.91;;;4.41;60.13
47366;BME280;33105;47.964;7.982;2023-03-01T16:24:55;96697.91;;;4.32;58.99
47366;BME280;33105;47.964;7.982;2023-03-01T16:27:56;96699.00;;;4.06;60.62
47366;BME280;33105;47.964;7.982;2023-03-01T16:30:59;96696.19;;;4.20;61.42
47366;BME280;33105;47.964;7.982;2023-03-01T16:34:03;96702.31;;;3.84;60.86
47366;BME280;33105;47.964;7.982;2023-03-01T16:37:04;96693.56;;;3.88;61.95
47366;BME280;33105;47.964;7.982;2023-03-01T16:40:11;96701.84;;;4.12;61.64
47366;BME280;33105;47.964;7.982;2023-03-01T16:43:17;96695.88;;;3.85;62.87
47366;BME280;33105;47.964;7.982;2023-03-01T16:46:22;96705.78;;;3.91;63.24
47366;BME280;33105;47.964;7.982;2023-03-01T16:49:24;96716.22;;;3.87;64.24
47366;BME280;33105;47.964;7.982;2023-03-01T16:52:25;96706.28;;;3.81;64.01
47366;BME280;33105;47.964;7.982;2023-03-01T16:55:27;96719.31;;;3.66;64.42
47366;BME280;33105;47.964;7.982;2023-03-01T16:58:30;96716.84;;;3.58;64.87
47366;BME280;33105;47.964;7.982;2023-03-01T17:01:32;96724.53;;;3.29;64.57
47366;BME280;33105;47.964;7.982;2023-03-01T17:04:43;96731.16;;;3.33;64.86
47366;BME280;33105;47.964;7.982;2023-03-01T17:07:45;96731.31;;;3.45;65.54
47366;BME280;33105;47.964;7.982;2023-03-01T17:10:46;96725.31;;;3.36;65.47
47366;BME280;33105;47.964;7.982;2023-03-01T17:13:48;96720.44;;;3.20;65.42
47366;BME280;33105;47.964;7.982;2023-03-01T17:16:49;96732.00;;;3.27;66.31
47366;BME280;33105;47.964;7.982;2023-03-01T17:19:52;96725.84;;;3.20;65.62
47366;BME280;33105;47.964;7.982;2023-03-01T17:22:55;96734.50;;;3.29;65.56
47366;BME280;33105;47.964;7.982;2023-03-01T17:25:57;96732.00;;;3.27;66.42
47366;BME280;33105;47.964;7.982;2023-03-01T17:28:59;96728.53;;;3.20;66.03
47366;BME280;33105;47.964;7.982;2023-03-01T17:32:02;96730.22;;;3.15;65.86
47366;BME280;33105;47.964;7.982;2023-03-01T17:35:05;96732.91;;;3.21;66.14
47366;BME280;33105;47.964;7.982;2023-03-01T17:38:09;96748.91;;;3.16;65.54
47366;BME280;33105;47.964;7.982;2023-03-01T17:41:11;96741.69;;;3.03;66.35
47366;BME280;33105;47.964;7.982;2023-03-01T17:44:14;96742.09;;;3.07;66.65
47366;BME280;33105;47.964;7.982;2023-03-01T17:47:15;96741.13;;;2.95;66.08
47366;BME280;33105;47.964;7.982;2023-03-01T17:50:17;96749.22;;;2.95;65.97
47366;BME280;33105;47.964;7.982;2023-03-01T17:53:19;96750.47;;;2.92;67.21
47366;BME280;33105;47.964;7.982;2023-03-01T17:56:20;96756.94;;;2.85;66.82
47366;BME280;33105;47.964;7.982;2023-03-01T17:59:22;96753.81;;;2.81;66.98
47366;BME280;33105;47.964;7.982;2023-03-01T18:02:24;96765.25;;;2.77;67.32
47366;BME280;33105;47.964;7.982;2023-03-01T18:05:32;96775.47;;;2.61;67.08
47366;BME280;33105;47.964;7.982;2023-03-01T18:08:36;96769.88;;;2.56;67.18
47366;BME280;33105;47.964;7.982;2023-03-01T18:11:38;96765.03;;;2.85;66.86
47366;BME280;33105;47.964;7.982;2023-03-01T18:14:42;96763.38;;;2.84;67.18
47366;BME280;33105;47.964;7.982;2023-03-01T18:17:43;96764.06;;;2.59;67.89